createdAt,value
2023-03-26T00:01:36.974Z,78.13
2023-03-26T00:04:06.901Z,77.93
2023-03-26T00:06:39.561Z,78.25
2023-03-26T00:09:10.310Z,78.40
2023-03-26T00:11:37.665Z,78.47
2023-03-26T00:14:05.826Z,78.35
2023-03-26T00:16:33.899Z,78.60
2023-03-26T00:19:02.220Z,78.55
2023-03-26T00:21:31.264Z,78.62
2023-03-26T00:24:07.847Z,78.52
2023-03-26T00:26:37.759Z,78.73
2023-03-26T00:29:07.027Z,78.75
2023-03-26T00:31:34.896Z,78.68
2023-03-26T00:34:03.987Z,78.93
2023-03-26T00:36:31.234Z,78.93
2023-03-26T00:38:58.340Z,79.00
2023-03-26T00:41:27.169Z,78.84
2023-03-26T00:43:57.469Z,78.97
2023-03-26T00:46:26.707Z,79.29
2023-03-26T00:48:54.487Z,79.19
2023-03-26T00:51:22.433Z,79.39
2023-03-26T00:53:50.970Z,79.44
2023-03-26T00:56:19.118Z,79.06
2023-03-26T00:58:47.872Z,79.24
2023-03-26T01:01:28.724Z,79.35
2023-03-26T01:04:27.991Z,79.44
2023-03-26T01:06:55.918Z,79.83
2023-03-26T01:09:34.376Z,79.67
2023-03-26T01:12:04.593Z,79.75
2023-03-26T01:14:31.938Z,79.93
2023-03-26T01:17:02.181Z,79.93
2023-03-26T01:19:45.104Z,79.78
2023-03-26T01:22:26.303Z,79.93
2023-03-26T01:24:56.868Z,79.89
2023-03-26T01:27:42.929Z,80.10
2023-03-26T01:30:33.815Z,79.93
2023-03-26T01:34:04.380Z,79.77
2023-03-26T01:36:56.995Z,79.80
2023-03-26T01:39:39.044Z,79.96
2023-03-26T01:42:24.960Z,79.73
2023-03-26T01:44:59.793Z,79.79
2023-03-26T01:47:27.122Z,79.87
2023-03-26T01:49:54.507Z,79.79
2023-03-26T01:52:26.355Z,79.77
2023-03-26T01:54:54.901Z,79.88
2023-03-26T01:58:07.909Z,79.79
2023-03-26T02:00:45.518Z,79.88
2023-03-26T02:03:35.536Z,79.94
2023-03-26T02:06:39.671Z,79.99
2023-03-26T02:09:24.147Z,80.17
2023-03-26T02:11:51.749Z,80.32
2023-03-26T02:14:18.855Z,80.20
2023-03-26T02:16:47.267Z,80.44
2023-03-26T02:19:22.046Z,80.47
2023-03-26T02:21:51.749Z,80.46
2023-03-26T02:24:21.951Z,80.53
2023-03-26T02:26:49.095Z,80.39
2023-03-26T02:29:20.846Z,80.60
2023-03-26T02:31:48.743Z,80.48
2023-03-26T02:34:18.670Z,80.17
2023-03-26T02:36:45.809Z,80.27
2023-03-26T02:39:14.479Z,80.54
2023-03-26T02:41:41.627Z,80.42
2023-03-26T02:44:08.722Z,80.31
2023-03-26T02:46:36.108Z,80.29
2023-03-26T02:49:03.220Z,80.26
2023-03-26T02:51:35.086Z,80.23
2023-03-26T02:54:02.622Z,80.17
2023-03-26T02:56:30.044Z,79.97
2023-03-26T02:58:57.204Z,80.19
2023-03-26T03:01:24.689Z,80.29
2023-03-26T03:03:51.864Z,80.30
2023-03-26T03:06:20.702Z,80.69
2023-03-26T03:08:48.169Z,80.50
2023-03-26T03:11:18.843Z,80.51
2023-03-26T03:13:47.046Z,80.69
2023-03-26T03:16:14.416Z,80.48
2023-03-26T03:18:41.662Z,80.57
2023-03-26T03:21:08.796Z,80.66
2023-03-26T03:23:36.038Z,80.30
2023-03-26T03:26:03.172Z,80.45
2023-03-26T03:28:30.791Z,80.31
2023-03-26T03:30:57.986Z,80.31
2023-03-26T03:33:25.465Z,80.72
2023-03-26T03:35:53.084Z,80.40
2023-03-26T03:38:21.193Z,80.57
2023-03-26T03:40:48.508Z,80.60
2023-03-26T03:43:15.815Z,80.54
2023-03-26T03:45:43.226Z,80.60
2023-03-26T05:05:03.167Z,81.40
2023-03-26T05:07:30.475Z,81.33
2023-03-26T05:09:57.736Z,81.70
2023-03-26T05:12:25.025Z,81.73
2023-03-26T05:14:52.106Z,81.85
2023-03-26T05:17:21.549Z,81.79
2023-03-26T05:19:48.669Z,81.75
2023-03-26T05:22:19.485Z,81.61
2023-03-26T05:24:49.876Z,82.14
2023-03-26T05:27:17.537Z,81.66
2023-03-26T05:29:45.324Z,82.01
2023-03-26T05:32:12.822Z,81.98
2023-03-26T05:34:40.798Z,81.91
2023-03-26T05:37:09.430Z,82.02
2023-03-26T05:39:36.600Z,81.96
2023-03-26T05:42:04.165Z,82.05
2023-03-26T05:44:31.448Z,82.22
2023-03-26T05:46:58.561Z,82.05
2023-03-26T05:49:25.723Z,82.24
2023-03-26T05:51:54.985Z,82.08
2023-03-26T05:54:22.557Z,82.08
2023-03-26T05:56:49.808Z,82.10
2023-03-26T05:59:17.299Z,82.29
2023-03-26T06:01:45.417Z,81.95
2023-03-26T06:04:13.864Z,82.16
2023-03-26T06:06:41.455Z,82.03
2023-03-26T06:09:08.753Z,82.09
2023-03-26T06:11:35.970Z,82.31
2023-03-26T06:14:03.046Z,82.22
2023-03-26T06:16:30.225Z,82.28
2023-03-26T06:18:57.849Z,82.32
2023-03-26T06:21:29.289Z,82.67
2023-03-26T06:23:56.576Z,82.67
2023-03-26T06:26:23.853Z,82.38
2023-03-26T06:28:51.289Z,82.48
2023-03-26T06:31:19.487Z,82.45
2023-03-26T06:33:47.128Z,82.44
2023-03-26T06:36:15.004Z,82.56
2023-03-26T06:38:42.342Z,82.58
2023-03-26T06:41:09.453Z,82.78
2023-03-26T06:43:37.615Z,82.74
2023-03-26T06:46:05.183Z,82.94
2023-03-26T06:48:32.507Z,82.43
2023-03-26T06:50:59.739Z,82.77
2023-03-26T06:53:26.991Z,82.79
2023-03-26T06:55:54.852Z,82.92
2023-03-26T06:58:22.599Z,82.98
2023-03-26T07:00:54.618Z,83.07
2023-03-26T07:03:22.784Z,83.07
2023-03-26T07:05:50.401Z,83.29
2023-03-26T07:08:17.540Z,82.86
2023-03-26T07:10:46.545Z,82.96
2023-03-26T07:13:13.665Z,83.13
2023-03-26T07:15:40.850Z,82.86
2023-03-26T07:18:10.614Z,83.09
2023-03-26T07:20:38.037Z,82.92
2023-03-26T07:23:05.584Z,82.93
2023-03-26T07:25:33.098Z,83.07
2023-03-26T07:29:05.194Z,82.75
2023-03-26T07:31:49.952Z,82.90
2023-03-26T07:34:49.038Z,82.79
2023-03-26T07:37:42.211Z,82.50
2023-03-26T07:40:44.837Z,82.72
2023-03-26T07:43:22.993Z,82.63
2023-03-26T07:45:50.651Z,82.46
2023-03-26T07:48:21.744Z,82.40
2023-03-26T07:50:49.380Z,82.13
2023-03-26T07:53:20.109Z,82.11
2023-03-26T07:55:56.032Z,82.25
2023-03-26T07:58:44.956Z,82.32
2023-03-26T08:01:46.896Z,82.34
2023-03-26T08:04:53.798Z,81.91
2023-03-26T08:07:55.919Z,81.86
2023-03-26T08:11:07.771Z,81.79
2023-03-26T08:14:27.930Z,81.59
2023-03-26T08:17:16.581Z,81.27
2023-03-26T08:20:12.177Z,81.11
2023-03-26T08:22:42.892Z,80.67
2023-03-26T08:25:23.699Z,80.60
2023-03-26T08:28:16.672Z,80.53
2023-03-26T08:30:45.612Z,80.05
2023-03-26T08:33:19.190Z,80.01
2023-03-26T08:35:49.731Z,79.59
2023-03-26T08:38:19.735Z,79.64
2023-03-26T08:41:11.357Z,79.43
2023-03-26T08:44:21.374Z,79.44
2023-03-26T08:47:28.709Z,79.21
2023-03-26T08:50:39.568Z,78.79
2023-03-26T08:53:34.607Z,78.76
2023-03-26T08:56:57.900Z,78.58
2023-03-26T08:59:53.709Z,78.53
2023-03-26T09:03:08.222Z,78.51
2023-03-26T09:05:55.002Z,78.43
2023-03-26T09:09:00.936Z,78.61
2023-03-26T09:11:54.368Z,78.48
2023-03-26T09:14:37.646Z,78.38
2023-03-26T09:17:29.192Z,78.50
2023-03-26T09:20:41.625Z,78.38
2023-03-26T09:23:48.741Z,78.43
2023-03-26T09:27:00.607Z,78.49
2023-03-26T09:30:04.537Z,78.34
2023-03-26T09:32:40.474Z,78.48
2023-03-26T09:35:14.732Z,78.28
2023-03-26T09:38:25.637Z,78.13
2023-03-26T09:41:22.935Z,78.27
2023-03-26T09:44:06.300Z,78.17
2023-03-26T09:47:00.625Z,78.10
2023-03-26T09:50:14.930Z,77.76
2023-03-26T09:52:50.320Z,77.74
2023-03-26T09:55:48.773Z,77.66
2023-03-26T09:58:46.550Z,77.79
2023-03-26T10:01:34.381Z,77.61
2023-03-26T10:04:41.194Z,77.42
2023-03-26T10:07:31.649Z,77.22
2023-03-26T10:10:41.547Z,76.96
2023-03-26T10:13:23.920Z,76.91
2023-03-26T10:16:34.998Z,76.95
2023-03-26T10:19:20.813Z,76.66
2023-03-26T10:22:00.629Z,76.47
2023-03-26T10:25:13.410Z,76.48
2023-03-26T10:28:36.694Z,76.29
2023-03-26T10:31:31.327Z,76.03
2023-03-26T10:34:28.042Z,75.89
2023-03-26T10:37:34.095Z,75.82
2023-03-26T10:40:10.356Z,75.55
2023-03-26T10:43:09.107Z,75.66
2023-03-26T10:45:55.925Z,75.54
2023-03-26T10:48:53.819Z,75.17
2023-03-26T10:51:48.817Z,74.87
2023-03-26T10:55:02.529Z,74.87
2023-03-26T10:57:45.399Z,74.50
2023-03-26T11:00:25.807Z,74.59
2023-03-26T11:03:21.341Z,74.32
2023-03-26T11:05:57.416Z,74.18
2023-03-26T11:08:58.565Z,73.80
2023-03-26T11:12:26.759Z,73.88
2023-03-26T11:15:20.628Z,73.63
2023-03-26T11:18:24.962Z,73.33
2023-03-26T11:21:19.146Z,72.91
2023-03-26T11:24:04.856Z,72.93
2023-03-26T11:26:51.120Z,72.67
2023-03-26T11:29:41.334Z,72.20
2023-03-26T11:32:22.401Z,72.03
2023-03-26T11:35:06.488Z,72.13
2023-03-26T11:37:51.329Z,71.85
2023-03-26T11:40:34.245Z,71.83
2023-03-26T11:43:05.205Z,71.43
2023-03-26T11:45:37.614Z,71.35
2023-03-26T11:48:19.613Z,71.24
2023-03-26T11:50:53.021Z,71.12
2023-03-26T11:53:22.946Z,71.13
2023-03-26T11:56:15.292Z,70.91
2023-03-26T11:59:16.653Z,70.82
2023-03-26T12:02:05.386Z,70.73
2023-03-26T12:04:46.405Z,70.32
2023-03-26T12:07:21.401Z,70.27
2023-03-26T12:10:17.739Z,69.95
2023-03-26T12:12:47.806Z,69.74
2023-03-26T12:15:21.131Z,69.54
2023-03-26T12:17:53.748Z,69.07
2023-03-26T12:20:31.237Z,69.36
2023-03-26T12:23:05.235Z,69.12
2023-03-26T12:25:36.706Z,68.99
2023-03-26T12:28:19.205Z,68.83
2023-03-26T12:31:03.185Z,68.49
2023-03-26T12:33:35.938Z,68.71
2023-03-26T12:36:23.440Z,68.62
2023-03-26T12:39:42.688Z,68.47
2023-03-26T12:42:25.980Z,68.28
2023-03-26T12:44:56.579Z,68.17
2023-03-26T12:47:57.722Z,68.26
2023-03-26T12:50:37.587Z,67.53
2023-03-26T12:53:49.498Z,67.82
2023-03-26T12:57:12.312Z,67.89
2023-03-26T12:59:47.727Z,67.40
2023-03-26T13:02:34.305Z,67.05
2023-03-26T13:05:54.970Z,66.88
2023-03-26T13:08:53.508Z,66.66
2023-03-26T13:11:49.548Z,66.50
2023-03-26T13:15:01.618Z,66.27
2023-03-26T13:18:02.581Z,66.19
2023-03-26T13:21:02.417Z,66.00
2023-03-26T13:23:58.982Z,66.05
2023-03-26T13:27:01.297Z,65.56
2023-03-26T13:29:56.914Z,65.74
2023-03-26T13:32:45.283Z,65.48
2023-03-26T13:36:10.235Z,65.13
2023-03-26T13:38:58.959Z,65.11
2023-03-26T13:41:48.723Z,64.92
2023-03-26T13:44:53.379Z,64.97
2023-03-26T13:47:36.908Z,64.87
2023-03-26T13:50:26.262Z,64.70
2023-03-26T13:53:12.980Z,64.56
2023-03-26T13:55:50.916Z,64.27
2023-03-26T13:59:18.482Z,63.97
2023-03-26T14:01:55.286Z,64.22
2023-03-26T14:04:34.236Z,64.32
2023-03-26T14:07:25.017Z,64.19
2023-03-26T14:10:02.377Z,64.06
2023-03-26T14:12:59.021Z,63.86
2023-03-26T14:15:45.193Z,63.85
2023-03-26T14:18:43.603Z,64.10
2023-03-26T14:21:29.234Z,64.11
2023-03-26T14:24:11.582Z,63.89
2023-03-26T14:27:13.426Z,63.68
2023-03-26T14:30:05.036Z,63.46
2023-03-26T14:32:37.230Z,63.53
2023-03-26T14:35:35.366Z,63.62
2023-03-26T14:38:34.028Z,63.13
2023-03-26T14:41:41.095Z,63.12
2023-03-26T14:44:48.230Z,63.30
2023-03-26T14:47:24.658Z,63.45
2023-03-26T14:50:23.173Z,62.68
2023-03-26T14:52:52.609Z,62.60
2023-03-26T14:56:11.691Z,62.41
2023-03-26T14:59:22.779Z,62.44
2023-03-26T15:02:46.426Z,62.53
2023-03-26T15:06:18.045Z,62.32
2023-03-26T15:09:16.601Z,62.43
2023-03-26T15:12:16.546Z,62.34
2023-03-26T15:15:27.529Z,62.40
2023-03-26T15:18:16.520Z,62.29
2023-03-26T15:21:16.719Z,62.54
2023-03-26T15:24:14.894Z,62.27
2023-03-26T15:27:19.529Z,62.19
2023-03-26T15:30:07.630Z,62.17
2023-03-26T15:33:12.186Z,61.66
2023-03-26T15:36:03.892Z,61.86
2023-03-26T15:39:30.866Z,61.49
2023-03-26T15:42:17.364Z,61.50
2023-03-26T15:44:55.620Z,61.30
2023-03-26T15:48:12.983Z,60.97
2023-03-26T15:51:22.332Z,60.70
2023-03-26T15:54:25.901Z,60.63
2023-03-26T15:57:07.481Z,60.73
2023-03-26T15:59:50.080Z,60.67
2023-03-26T16:02:38.099Z,60.21
2023-03-26T16:05:48.727Z,60.19
2023-03-26T16:09:09.786Z,60.25
2023-03-26T16:11:58.852Z,60.18
2023-03-26T16:15:25.091Z,59.99
2023-03-26T16:18:34.342Z,59.43
2023-03-26T16:21:34.946Z,59.92
2023-03-26T16:24:08.706Z,59.57
2023-03-26T16:26:46.121Z,59.63
2023-03-26T16:29:26.282Z,59.68
2023-03-26T16:32:26.284Z,59.84
2023-03-26T16:35:03.006Z,60.05
2023-03-26T16:37:38.722Z,60.15
2023-03-26T16:40:18.214Z,59.93
2023-03-26T16:43:28.073Z,59.98
2023-03-26T16:46:23.746Z,59.93
2023-03-26T16:49:27.922Z,59.58
2023-03-26T16:52:21.392Z,59.49
2023-03-26T16:55:35.693Z,59.32
2023-03-26T16:59:06.580Z,59.23
2023-03-26T17:01:52.495Z,59.14
2023-03-26T17:04:24.846Z,59.01
2023-03-26T17:07:01.985Z,58.92
2023-03-26T17:10:04.181Z,58.84
2023-03-26T17:12:34.389Z,58.93
2023-03-26T17:15:41.412Z,59.22
2023-03-26T17:18:49.420Z,58.87
2023-03-26T17:21:46.226Z,58.89
2023-03-26T17:24:45.064Z,58.86
2023-03-26T17:27:52.639Z,58.96
2023-03-26T17:31:15.896Z,58.90
2023-03-26T17:33:43.439Z,58.96
2023-03-26T17:36:22.647Z,59.21
2023-03-26T17:38:49.629Z,59.49
2023-03-26T17:44:41.615Z,59.45
2023-03-26T17:47:34.027Z,59.54
2023-03-26T17:50:13.547Z,59.88
2023-03-26T17:52:56.960Z,60.03
2023-03-26T17:55:31.163Z,60.18
2023-03-26T17:58:21.047Z,60.36
2023-03-26T18:01:16.377Z,60.50
2023-03-26T18:03:54.845Z,60.58
2023-03-26T18:06:42.901Z,60.52
2023-03-26T18:09:49.538Z,60.77
2023-03-26T18:12:38.024Z,60.93
2023-03-26T18:16:01.404Z,61.00
2023-03-26T18:18:37.766Z,60.97
2023-03-26T18:21:07.354Z,60.86
2023-03-26T18:23:47.883Z,60.77
2023-03-26T18:26:23.401Z,60.91
2023-03-26T18:29:36.460Z,60.69
2023-03-26T18:32:24.189Z,60.69
2023-03-26T18:34:58.733Z,60.83
2023-03-26T18:37:31.944Z,61.01
2023-03-26T18:40:22.708Z,60.65
2023-03-26T18:42:58.283Z,61.07
2023-03-26T18:45:31.053Z,61.07
2023-03-26T18:48:24.433Z,61.08
2023-03-26T18:51:05.204Z,61.16
2023-03-26T18:53:41.435Z,61.28
2023-03-26T18:56:42.598Z,61.21
2023-03-26T18:59:32.685Z,61.56
2023-03-26T19:02:04.558Z,61.45
2023-03-26T19:04:34.154Z,61.65
2023-03-26T19:07:01.770Z,61.85
2023-03-26T19:09:31.999Z,61.88
2023-03-26T19:12:06.821Z,61.91
2023-03-26T19:14:37.553Z,62.08
2023-03-26T19:17:06.263Z,61.95
2023-03-26T19:19:37.115Z,61.97
2023-03-26T19:22:09.562Z,62.28
2023-03-26T19:24:37.323Z,62.14
2023-03-26T19:27:04.877Z,62.17
2023-03-26T19:29:36.424Z,62.14
2023-03-26T19:32:13.909Z,62.14
2023-03-26T19:34:41.630Z,62.43
2023-03-26T19:37:23.825Z,62.00
2023-03-26T19:40:12.034Z,61.97
2023-03-26T19:42:43.111Z,62.44
2023-03-26T19:45:25.950Z,62.36
2023-03-26T19:48:03.950Z,62.46
2023-03-26T19:50:37.512Z,62.54
2023-03-26T19:53:30.712Z,62.75
2023-03-26T19:56:13.256Z,62.48
2023-03-26T19:58:41.752Z,62.94
2023-03-26T20:01:25.733Z,62.76
2023-03-26T20:04:00.516Z,62.80
2023-03-26T20:06:41.545Z,62.90
2023-03-26T20:09:11.927Z,62.82
2023-03-26T20:11:39.948Z,62.89
2023-03-26T20:14:26.434Z,62.96
2023-03-26T20:16:54.045Z,62.99
2023-03-26T20:19:21.188Z,63.18
2023-03-26T20:21:49.235Z,62.95
2023-03-26T20:24:21.670Z,63.22
2023-03-26T20:26:48.796Z,62.93
2023-03-26T20:29:19.969Z,62.76
2023-03-26T20:31:48.696Z,63.05
2023-03-26T20:34:20.252Z,62.83
2023-03-26T20:36:47.964Z,63.14
2023-03-26T20:39:16.219Z,62.93
2023-03-26T20:41:56.571Z,62.93
2023-03-26T20:44:23.804Z,63.18
2023-03-26T20:46:51.679Z,63.16
2023-03-26T20:49:18.874Z,63.28
2023-03-26T20:51:49.092Z,63.16
2023-03-26T20:54:23.483Z,63.31
2023-03-26T20:56:51.460Z,63.28
2023-03-26T20:59:22.655Z,63.73
2023-03-26T21:01:50.732Z,63.74
2023-03-26T21:04:18.088Z,63.56
2023-03-26T21:06:47.064Z,63.66
2023-03-26T21:09:19.493Z,63.59
2023-03-26T21:12:08.626Z,63.75
2023-03-26T21:14:41.776Z,63.67
2023-03-26T21:17:22.317Z,63.72
2023-03-26T21:19:50.387Z,63.66
2023-03-26T21:22:37.924Z,63.68
2023-03-26T21:25:26.038Z,64.11
2023-03-26T21:28:41.401Z,64.17
2023-03-26T21:31:19.491Z,64.11
2023-03-26T21:33:50.727Z,64.09
2023-03-26T21:36:19.968Z,64.28
2023-03-26T21:38:48.211Z,64.21
2023-03-26T21:41:24.354Z,64.48
2023-03-26T21:43:51.812Z,64.18
2023-03-26T21:46:19.309Z,64.37
2023-03-26T21:48:50.173Z,64.63
2023-03-26T21:51:18.005Z,64.27
2023-03-26T21:53:49.217Z,64.55
2023-03-26T21:56:39.232Z,64.48
2023-03-26T21:59:21.822Z,64.69
2023-03-26T22:02:43.953Z,64.71
2023-03-26T22:05:42.246Z,64.96
2023-03-26T22:08:30.194Z,64.88
2023-03-26T22:10:57.654Z,64.90
2023-03-26T22:13:25.386Z,65.17
2023-03-26T22:15:52.619Z,65.22
2023-03-26T22:18:21.812Z,65.04
2023-03-26T22:20:49.614Z,65.29
2023-03-26T22:23:18.296Z,65.37
2023-03-26T22:25:49.177Z,65.65
2023-03-26T22:28:17.115Z,65.77
2023-03-26T22:30:46.680Z,65.59
2023-03-26T22:33:15.191Z,65.86
2023-03-26T22:35:43.200Z,66.16
2023-03-26T22:38:11.850Z,66.18
2023-03-26T22:40:39.170Z,66.05
2023-03-26T22:43:06.373Z,66.37
2023-03-26T22:45:33.446Z,66.28
2023-03-26T22:48:04.691Z,66.63
2023-03-26T22:50:33.044Z,66.72
2023-03-26T22:53:00.689Z,66.44
2023-03-26T22:55:30.021Z,66.61
2023-03-26T22:57:57.767Z,66.91
2023-03-26T23:00:26.619Z,66.68
2023-03-26T23:02:56.076Z,66.88
2023-03-26T23:05:23.771Z,66.87
2023-03-26T23:07:55.487Z,67.29
2023-03-26T23:10:22.525Z,67.09
2023-03-26T23:12:49.881Z,67.10
2023-03-26T23:15:17.155Z,67.14
2023-03-26T23:17:45.274Z,67.10
2023-03-26T23:20:22.228Z,67.40
2023-03-26T23:22:49.314Z,67.44
2023-03-26T23:25:16.956Z,67.14
2023-03-26T23:27:45.225Z,67.05
2023-03-26T23:30:13.545Z,67.21
2023-03-26T23:32:41.595Z,67.39
2023-03-26T23:35:09.245Z,67.42
2023-03-26T23:37:36.398Z,67.45
2023-03-26T23:40:10.112Z,67.22
2023-03-26T23:42:38.013Z,67.15
2023-03-26T23:45:06.524Z,67.26
2023-03-26T23:47:34.782Z,67.33
2023-03-26T23:50:02.690Z,67.21
2023-03-26T23:52:31.251Z,67.34
2023-03-26T23:55:01.667Z,67.16
2023-03-26T23:57:29.267Z,67.33
2023-03-26T23:59:56.430Z,67.34
